EDXW Airport Information

Runway Information
Runway 06 Length 5564 ft width 148 ft
Elevation 27 ft Threshold ft Heading 60
Runway 24 Length 5564 ft Width 148 ft
Elevation 51 ft Threshold ft Heading 240
Runway 14 Length 6955 ft width 148 ft
Elevation 32 ft Threshold ft Heading 144
Runway 32 Length 6955 ft Width 148 ft
Elevation 31 ft Threshold ft Heading 324
Airport Frequencies
Type INFO Name BREMEN INF Frequency 125.1 MHZ
Type RDR Name BREMEN RAD Frequency 136.225 MHZ
Type TWR Name SYLT TWR Frequency 119.75 MHZ
Airport Navaids
Type NDB Name Sylt Frequency 387 KHZ
Type DME Name Westerland Frequency 111500 KHZ
Airport Weather Information & NOTAM
ADDS - METARS form results

(1702 UTC 06 December 2022)
Data provider http://aviationweather.gov/metar/data/
 
METAR text: EDXW 061650Z AUTO 27011KT 9999 // FEW014/// BKN021/// OVC030/// 06/03 Q1013
Conditions at: EDXW (WESTERLAND/SYLT , DE) observed 1650 UTC 06 December 2022
Temperature: 6.0°C (43°F)
Dewpoint: 3.0°C (37°F) [RH = 81%]
Pressure (altimeter): 29.91 inches Hg (1013.0 mb)
Winds: from the W (270 degrees) at 13 MPH (11 knots; 5.7 m/s)
Visibility: 6 or more miles (10+ km)
Ceiling: 2100 feet AGL
Clouds: few clouds at 1400 feet AGL
broken clouds at 2100 feet AGL
overcast cloud deck at 3000 feet AGL
Weather: no significant weather observed at this time

METAR text: EDXW 061620Z AUTO 23004KT 9999 // BKN023/// OVC033/// 05/03 Q1014
Conditions at: EDXW (WESTERLAND/SYLT , DE) observed 1620 UTC 06 December 2022
Temperature: 5.0°C (41°F)
Dewpoint: 3.0°C (37°F) [RH = 87%]
Pressure (altimeter): 29.94 inches Hg (1014.0 mb)
Winds: from the SW (230 degrees) at 5 MPH (4 knots; 2.1 m/s)
Visibility: 6 or more miles (10+ km)
Ceiling: 2300 feet AGL
Clouds: broken clouds at 2300 feet AGL
overcast cloud deck at 3300 feet AGL
Weather: no significant weather observed at this time

Forecast for: EDXW (WESTERLAND/SYLT , DE)
Text: TAF EDXW 061400Z 0615/0618 24005KT CAVOK
Forecast period: 1500 to 1800 UTC 06 December 2022
Forecast type: FROM: standard forecast or significant change
Winds: from the WSW (240 degrees) at 6 MPH (5 knots; 2.6 m/s)
Visibility: 6 or more miles (10+ km)
Ceiling: unknown
Clouds: missing
Weather: NSW  (no significant weather)
Text: TEMPO 0615/0618 VRB03KT 4500 -RA BKN012
Forecast period: 1500 to 1800 UTC 06 December 2022
Forecast type: TEMPORARY: The following changes expected for less than half the time period
Winds: variable direction winds at 3 MPH (3 knots; 1.5 m/s)
Visibility: 2.80 miles (4.51 km)
Ceiling: 1200 feet AGL
Clouds: broken clouds at 1200 feet AGL
Weather: -RA  (light rain)